Time;durP1;ratioP1;P1;durP2;ratioP2;P2;SDS_P1;SDS_P2;PMS_P1;PMS_P2;Temp;Humidity;BMP_temperature;BMP_pressure;BME280_temperature;BME280_humidity;BME280_pressure;Samples;Min_cycle;Max_cycle;Signal;HPM_P1;HPM_P2
2024/01/13 00:01:13;;;;;;;11.50;8.00;;;;;;;-1.98;91.70;100049.55;217264;1264;140919;-68
2024/01/13 00:06:32;;;;;;;10.20;5.10;;;;;;;-1.94;91.65;100040.08;216171;1264;225777;-69
2024/01/13 00:11:35;;;;;;;11.20;6.70;;;;;;;-1.94;91.69;100026.45;216327;1267;141369;-72
2024/01/13 00:16:39;;;;;;;11.60;6.40;;;;;;;-1.93;91.69;100023.79;218184;1263;142183;-70
2024/01/13 00:21:41;;;;;;;11.60;5.40;;;;;;;-1.90;91.75;100016.90;218290;1264;141035;-67
2024/01/13 00:26:44;;;;;;;11.30;7.00;;;;;;;-1.89;91.77;100010.45;219008;1264;142488;-72
2024/01/13 00:31:47;;;;;;;11.20;8.50;;;;;;;-1.88;91.76;100017.22;216092;1264;141093;-71
2024/01/13 00:36:50;;;;;;;15.70;7.70;;;;;;;-1.84;91.62;100018.36;215906;1265;141453;-71
2024/01/13 00:41:54;;;;;;;14.40;6.80;;;;;;;-1.82;91.74;100018.37;216585;1264;141512;-70
2024/01/13 00:46:59;;;;;;;8.60;4.10;;;;;;;-1.80;91.83;100011.10;216417;1264;140296;-69
2024/01/13 00:52:01;;;;;;;14.20;8.90;;;;;;;-1.79;91.71;100010.34;218023;1264;140871;-70
2024/01/13 00:57:04;;;;;;;18.30;10.10;;;;;;;-1.78;91.79;100006.23;216768;1266;140202;-70
2024/01/13 01:02:08;;;;;;;13.40;8.20;;;;;;;-1.75;91.69;100006.13;216131;1264;140550;-69
2024/01/13 01:07:14;;;;;;;15.30;7.80;;;;;;;-1.73;91.78;100006.24;216047;1265;140653;-70
2024/01/13 01:12:17;;;;;;;14.10;8.80;;;;;;;-1.71;91.73;100027.15;215974;1264;142376;-73
2024/01/13 01:17:21;;;;;;;12.80;9.20;;;;;;;-1.66;91.82;100030.39;216358;1265;140187;-72
2024/01/13 01:22:25;;;;;;;16.80;10.70;;;;;;;-1.64;91.87;100021.36;215941;1267;141344;-71
2024/01/13 01:27:28;;;;;;;18.80;11.60;;;;;;;-1.61;91.63;100010.94;216009;1265;140674;-70
2024/01/13 01:32:31;;;;;;;12.30;8.10;;;;;;;-1.60;91.82;100017.13;215873;1264;140772;-69
2024/01/13 01:37:35;;;;;;;14.30;8.00;;;;;;;-1.59;91.69;100008.80;216744;1263;140154;-71
2024/01/13 01:42:39;;;;;;;18.50;9.60;;;;;;;-1.59;91.55;100006.67;217563;1264;140273;-68
2024/01/13 01:47:43;;;;;;;15.90;9.40;;;;;;;-1.57;91.73;100001.50;217201;1265;141203;-68
2024/01/13 01:52:46;;;;;;;11.80;7.60;;;;;;;-1.55;91.38;99992.23;216884;1264;140953;-69
2024/01/13 01:57:50;;;;;;;12.90;8.20;;;;;;;-1.56;91.36;99977.46;216887;1267;140694;-72
2024/01/13 02:02:54;;;;;;;14.70;9.00;;;;;;;-1.55;91.55;99970.61;217588;1265;140704;-72
2024/01/13 02:07:57;;;;;;;12.90;8.10;;;;;;;-1.53;91.27;99965.13;219070;1264;141362;-74
2024/01/13 02:13:01;;;;;;;12.80;7.50;;;;;;;-1.51;91.49;99959.32;218872;1264;142123;-75
2024/01/13 02:18:03;;;;;;;17.80;9.10;;;;;;;-1.45;91.62;99960.31;219037;1263;140430;-74
2024/01/13 02:23:05;;;;;;;12.60;7.90;;;;;;;-1.38;91.33;99949.52;218936;1264;141872;-74
2024/01/13 02:28:09;;;;;;;14.50;8.20;;;;;;;-1.36;91.31;99942.02;218889;1264;140361;-73
2024/01/13 02:33:21;;;;;;;15.70;8.70;;;;;;;-1.35;91.04;99939.60;215942;1266;140261;-73
2024/01/13 02:38:25;;;;;;;11.60;7.70;;;;;;;-1.35;91.17;99944.34;216030;1266;140281;-72
2024/01/13 02:43:38;;;;;;;14.10;8.40;;;;;;;-1.35;91.27;99941.37;217002;1267;141268;-73
2024/01/13 02:48:45;;;;;;;12.20;8.00;;;;;;;-1.35;91.14;99938.03;216658;1265;140510;-72
2024/01/13 02:53:48;;;;;;;12.90;9.60;;;;;;;-1.40;91.08;99939.40;215868;1265;140119;-72
2024/01/13 02:58:51;;;;;;;11.40;7.50;;;;;;;-1.42;91.28;99929.84;215856;1265;140214;-69
2024/01/13 03:03:55;;;;;;;12.10;8.00;;;;;;;-1.41;91.27;99927.16;216052;1267;140615;-70
2024/01/13 03:09:02;;;;;;;16.00;8.50;;;;;;;-1.40;91.59;99926.20;216033;1265;140254;-71
2024/01/13 03:14:05;;;;;;;19.10;9.70;;;;;;;-1.40;91.45;99925.48;216000;1265;140871;-70
2024/01/13 03:19:08;;;;;;;16.10;9.60;;;;;;;-1.38;91.34;99921.94;215904;1267;140159;-69
2024/01/13 03:24:11;;;;;;;17.90;9.70;;;;;;;-1.38;91.30;99924.93;216281;1264;140140;-67
2024/01/13 03:29:15;;;;;;;11.60;7.20;;;;;;;-1.38;91.41;99917.75;215987;1265;141622;-69
2024/01/13 03:34:18;;;;;;;13.60;7.40;;;;;;;-1.38;91.51;99912.87;216090;1267;222615;-69
2024/01/13 03:39:21;;;;;;;18.20;10.30;;;;;;;-1.39;91.34;99903.94;217292;1265;139996;-72
2024/01/13 03:44:24;;;;;;;21.60;14.20;;;;;;;-1.37;91.41;99896.38;215977;1265;141605;-68
2024/01/13 03:49:27;;;;;;;17.80;9.70;;;;;;;-1.33;91.38;99885.36;216551;1267;140485;-68
2024/01/13 03:54:30;;;;;;;19.50;10.10;;;;;;;-1.31;91.13;99878.86;216370;1266;140324;-69
2024/01/13 03:59:33;;;;;;;15.00;8.70;;;;;;;-1.30;91.28;99873.96;218368;1267;140630;-70
2024/01/13 04:04:38;;;;;;;18.80;10.90;;;;;;;-1.29;91.05;99879.92;216418;1265;140086;-72
2024/01/13 04:09:41;;;;;;;15.00;8.00;;;;;;;-1.27;90.91;99881.34;215792;1266;140447;-71
2024/01/13 04:14:45;;;;;;;18.20;9.10;;;;;;;-1.29;91.04;99877.27;215886;1267;140520;-73
2024/01/13 04:19:47;;;;;;;18.70;9.30;;;;;;;-1.29;91.05;99881.71;216044;1267;140182;-72
2024/01/13 04:24:50;;;;;;;13.00;9.30;;;;;;;-1.30;91.01;99892.54;215780;1267;142399;-71
2024/01/13 04:29:53;;;;;;;16.00;10.00;;;;;;;-1.30;91.09;99897.66;216087;1265;140455;-70
2024/01/13 04:34:57;;;;;;;19.60;9.50;;;;;;;-1.33;90.96;99902.67;216050;1267;141074;-71
2024/01/13 04:40:00;;;;;;;15.60;8.10;;;;;;;-1.33;91.23;99910.30;217432;1264;141003;-70
2024/01/13 04:45:03;;;;;;;17.80;10.20;;;;;;;-1.33;91.10;99911.23;215911;1264;140706;-69
2024/01/13 04:50:06;;;;;;;17.80;9.80;;;;;;;-1.31;91.22;99907.82;216879;1266;140614;-71
2024/01/13 04:55:09;;;;;;;15.30;9.80;;;;;;;-1.29;91.10;99913.78;217143;1265;140058;-67
2024/01/13 05:00:13;;;;;;;13.70;10.00;;;;;;;-1.28;91.33;99910.72;216249;1265;140523;-67
2024/01/13 05:05:17;;;;;;;19.00;10.80;;;;;;;-1.29;91.21;99898.73;216299;1264;140309;-68
2024/01/13 05:10:20;;;;;;;15.20;12.00;;;;;;;-1.30;91.14;99893.29;216178;1267;140386;-67
2024/01/13 05:15:23;;;;;;;14.20;8.60;;;;;;;-1.31;91.33;99888.81;215873;1265;140416;-68
2024/01/13 05:20:28;;;;;;;14.40;9.20;;;;;;;-1.32;91.13;99881.44;216083;1264;141954;-69
2024/01/13 05:25:31;;;;;;;14.10;8.30;;;;;;;-1.31;90.99;99880.00;216530;1264;141290;-72
2024/01/13 05:30:35;;;;;;;17.20;12.00;;;;;;;-1.32;91.08;99880.23;216212;1267;140212;-71
2024/01/13 05:35:38;;;;;;;13.20;8.60;;;;;;;-1.31;91.16;99885.33;218371;1265;140869;-69
2024/01/13 05:40:44;;;;;;;11.90;7.60;;;;;;;-1.30;91.11;99880.02;215796;1267;142087;-74
2024/01/13 05:45:46;;;;;;;13.30;9.70;;;;;;;-1.31;90.91;99879.98;216519;1267;140087;-71
2024/01/13 05:50:49;;;;;;;14.80;9.20;;;;;;;-1.31;91.22;99886.28;216106;1265;140063;-72
2024/01/13 05:55:56;;;;;;;22.10;12.40;;;;;;;-1.31;91.02;99890.08;217304;1265;141103;-73
2024/01/13 06:01:41;;;;;;;18.60;8.30;;;;;;;-1.28;91.26;99885.02;215812;1264;224488;-71
2024/01/13 06:07:23;;;;;;;17.80;9.90;;;;;;;-1.26;91.08;99888.17;219071;1264;140752;-75
2024/01/13 06:12:38;;;;;;;19.60;10.00;;;;;;;-1.26;90.92;99878.95;218951;1264;140927;-74
2024/01/13 06:17:40;;;;;;;17.50;9.80;;;;;;;-1.25;90.82;99889.27;216769;1265;141705;-73
2024/01/13 06:22:43;;;;;;;18.10;10.90;;;;;;;-1.22;90.87;99887.45;216067;1267;140250;-73
2024/01/13 06:27:45;;;;;;;20.00;13.40;;;;;;;-1.21;90.94;99879.41;215787;1264;140671;-74
2024/01/13 06:32:47;;;;;;;13.70;8.60;;;;;;;-1.21;90.71;99860.83;215863;1265;140791;-74
2024/01/13 06:37:50;;;;;;;20.70;9.20;;;;;;;-1.24;90.79;99861.06;215825;1267;140791;-70
2024/01/13 06:42:53;;;;;;;14.50;7.50;;;;;;;-1.28;90.78;99855.73;216011;1267;141054;-72
2024/01/13 06:47:55;;;;;;;19.30;10.40;;;;;;;-1.32;90.80;99854.11;216784;1264;141209;-69
2024/01/13 06:53:01;;;;;;;19.30;10.30;;;;;;;-1.33;90.90;99857.70;215775;1264;141145;-68
2024/01/13 06:58:03;;;;;;;13.80;7.80;;;;;;;-1.35;91.03;99859.80;217606;1265;140202;-68
2024/01/13 07:03:05;;;;;;;22.10;10.40;;;;;;;-1.34;91.06;99857.59;216886;1264;142117;-68
2024/01/13 07:08:08;;;;;;;20.90;10.90;;;;;;;-1.32;91.18;99852.86;217282;1264;140551;-68
2024/01/13 07:13:10;;;;;;;21.20;10.90;;;;;;;-1.31;90.89;99845.39;217878;1267;140671;-69
2024/01/13 07:18:12;;;;;;;22.40;12.80;;;;;;;-1.33;90.95;99846.39;215804;1267;140185;-70
2024/01/13 07:23:14;;;;;;;28.40;14.00;;;;;;;-1.35;91.20;99844.29;216211;1267;141134;-70
2024/01/13 07:28:16;;;;;;;20.50;11.40;;;;;;;-1.32;91.17;99844.02;216404;1264;140550;-71
2024/01/13 07:33:17;;;;;;;19.60;12.30;;;;;;;-1.33;91.11;99839.55;215754;1267;141610;-72
2024/01/13 07:38:20;;;;;;;22.20;12.30;;;;;;;-1.34;91.15;99839.45;216614;1267;141086;-71
2024/01/13 07:43:21;;;;;;;23.40;13.30;;;;;;;-1.33;91.28;99840.43;216245;1265;140701;-70
2024/01/13 07:48:23;;;;;;;18.70;10.70;;;;;;;-1.32;91.36;99842.02;216277;1265;141135;-67
2024/01/13 07:53:26;;;;;;;24.20;11.90;;;;;;;-1.31;91.34;99839.54;217438;1264;142258;-68
2024/01/13 07:58:29;;;;;;;27.50;13.40;;;;;;;-1.29;91.38;99830.56;218999;1264;141352;-73
2024/01/13 08:03:31;;;;;;;23.80;12.10;;;;;;;-1.25;91.25;99827.70;218206;1264;141204;-68
2024/01/13 08:08:33;;;;;;;26.50;15.60;;;;;;;-1.24;91.41;99818.92;216233;1267;140649;-68
2024/01/13 08:13:35;;;;;;;25.80;12.70;;;;;;;-1.20;91.32;99811.16;217577;1267;140347;-69
2024/01/13 08:18:37;;;;;;;23.80;11.30;;;;;;;-1.19;91.36;99806.29;217657;1264;141034;-72
2024/01/13 08:23:39;;;;;;;25.10;12.90;;;;;;;-1.14;91.35;99813.54;216033;1268;141317;-72
2024/01/13 08:28:41;;;;;;;23.70;12.10;;;;;;;-1.13;91.38;99806.55;215784;1264;140156;-67
2024/01/13 08:33:43;;;;;;;33.50;15.70;;;;;;;-1.14;91.60;99802.30;217142;1267;141006;-71
2024/01/13 08:38:45;;;;;;;24.10;13.70;;;;;;;-1.10;91.38;99795.64;216338;1268;140783;-71
2024/01/13 08:43:48;;;;;;;29.70;14.60;;;;;;;-1.06;91.71;99792.75;216445;1269;140221;-70
2024/01/13 08:48:50;;;;;;;16.80;9.00;;;;;;;-1.02;91.90;99781.02;217360;1265;140394;-70
2024/01/13 08:53:52;;;;;;;26.50;12.80;;;;;;;-0.98;91.71;99778.77;216879;1264;142067;-70
2024/01/13 08:58:55;;;;;;;44.20;23.80;;;;;;;-0.92;91.77;99779.32;216708;1267;140102;-70
2024/01/13 09:03:57;;;;;;;198.30;80.30;;;;;;;-0.85;91.83;99774.23;216236;1267;141330;-72
2024/01/13 09:08:59;;;;;;;25.50;15.70;;;;;;;-0.77;91.87;99766.59;216337;1267;140347;-68
2024/01/13 09:14:01;;;;;;;26.30;15.20;;;;;;;-0.70;91.71;99768.83;216642;1264;141858;-72
2024/01/13 09:19:04;;;;;;;32.10;18.20;;;;;;;-0.69;91.81;99763.92;217299;1264;142073;-70
2024/01/13 09:24:07;;;;;;;32.10;14.60;;;;;;;-0.68;91.52;99762.07;216651;1264;140557;-68
2024/01/13 09:29:12;;;;;;;37.20;15.20;;;;;;;-0.68;91.67;99750.77;216305;1268;140300;-68
2024/01/13 09:34:15;;;;;;;25.80;10.50;;;;;;;-0.67;91.82;99738.14;216215;1269;142309;-67
2024/01/13 09:39:18;;;;;;;18.70;11.00;;;;;;;-0.63;91.98;99724.27;216509;1267;141515;-66
2024/01/13 09:44:26;;;;;;;26.30;12.70;;;;;;;-0.62;91.76;99716.16;217043;1266;140604;-69
2024/01/13 09:49:30;;;;;;;18.20;9.90;;;;;;;-0.59;91.95;99707.20;216915;1267;141545;-74
2024/01/13 09:54:39;;;;;;;19.30;12.50;;;;;;;-0.58;91.88;99697.48;217625;1264;140374;-68
2024/01/13 09:59:43;;;;;;;21.70;10.70;;;;;;;-0.55;91.97;99692.34;216472;1263;140542;-71
2024/01/13 10:04:45;;;;;;;23.80;13.90;;;;;;;-0.56;91.48;99692.41;216356;1264;141258;-69
2024/01/13 10:09:47;;;;;;;15.70;9.50;;;;;;;-0.54;91.40;99685.18;216013;1270;142260;-72
2024/01/13 10:14:50;;;;;;;22.20;10.30;;;;;;;-0.50;91.19;99683.58;216164;1264;140130;-72
2024/01/13 10:19:52;;;;;;;19.70;11.10;;;;;;;-0.50;91.15;99683.38;218085;1264;142081;-72
2024/01/13 10:24:55;;;;;;;16.20;9.70;;;;;;;-0.48;91.00;99675.30;216448;1264;140205;-71
2024/01/13 10:29:57;;;;;;;14.70;8.50;;;;;;;-0.41;90.77;99666.98;215917;1264;196944;-71
2024/01/13 10:35:01;;;;;;;12.70;8.20;;;;;;;-0.34;90.97;99655.33;216561;1264;140337;-67
2024/01/13 10:40:04;;;;;;;8.40;6.50;;;;;;;-0.27;90.69;99644.77;216922;1264;140544;-66
2024/01/13 10:45:14;;;;;;;10.80;5.90;;;;;;;-0.25;90.41;99638.13;216338;1264;140089;-67
2024/01/13 10:50:17;;;;;;;9.50;8.10;;;;;;;-0.22;90.06;99619.27;216406;1269;140265;-68
2024/01/13 10:55:19;;;;;;;10.20;6.60;;;;;;;-0.23;89.87;99613.01;216884;1267;140558;-71
2024/01/13 11:00:22;;;;;;;7.50;5.70;;;;;;;-0.19;89.92;99604.71;216043;1264;140734;-70
2024/01/13 11:05:28;;;;;;;8.20;7.40;;;;;;;-0.13;90.20;99585.41;216344;1264;141443;-69
2024/01/13 11:10:34;;;;;;;19.00;9.60;;;;;;;0.02;89.86;99565.50;216051;1263;142527;-69
2024/01/13 11:15:43;;;;;;;20.30;12.20;;;;;;;0.18;89.57;99560.02;216333;1264;139797;-68
2024/01/13 11:21:03;;;;;;;15.60;9.20;;;;;;;0.26;89.30;99556.14;216734;1264;141332;-69
2024/01/13 11:26:05;;;;;;;12.60;8.40;;;;;;;0.34;89.74;99539.00;216144;1264;139961;-67
2024/01/13 11:31:28;;;;;;;17.20;7.70;;;;;;;0.41;89.23;99518.28;215941;1264;139984;-68
2024/01/13 11:36:50;;;;;;;11.10;7.30;;;;;;;0.44;88.94;99516.92;217122;1267;140743;-69
2024/01/13 11:41:55;;;;;;;14.50;8.70;;;;;;;0.42;88.90;99511.15;216775;1267;141105;-70
2024/01/13 11:47:06;;;;;;;17.30;10.00;;;;;;;0.42;88.85;99510.11;215913;1265;142108;-68
2024/01/13 11:52:13;;;;;;;13.30;9.70;;;;;;;0.47;88.88;99503.13;216701;1267;140518;-70
2024/01/13 11:57:17;;;;;;;17.50;10.40;;;;;;;0.52;88.69;99497.98;216364;1265;141006;-68
2024/01/13 12:02:21;;;;;;;19.40;10.80;;;;;;;0.51;88.76;99491.80;216293;1264;140114;-70
2024/01/13 12:07:24;;;;;;;18.80;9.90;;;;;;;0.47;88.88;99469.13;215912;1267;140222;-69
2024/01/13 12:12:26;;;;;;;15.60;11.70;;;;;;;0.50;89.00;99433.84;216205;1267;139845;-70
2024/01/13 12:17:29;;;;;;;26.50;12.90;;;;;;;0.50;88.93;99424.77;216149;1267;142154;-70
2024/01/13 12:22:32;;;;;;;17.90;12.30;;;;;;;0.47;88.77;99427.20;216133;1265;140524;-72
2024/01/13 12:27:37;;;;;;;411.60;164.60;;;;;;;0.42;88.74;99424.98;216024;1264;140159;-72
2024/01/13 12:32:39;;;;;;;25.60;15.00;;;;;;;0.42;88.83;99422.80;216271;1263;140474;-73
2024/01/13 12:37:43;;;;;;;29.30;21.70;;;;;;;0.40;89.17;99408.29;216792;1267;140015;-70
2024/01/13 12:42:46;;;;;;;21.70;12.00;;;;;;;0.38;88.93;99400.99;216073;1264;140475;-71
2024/01/13 12:47:52;;;;;;;18.50;11.30;;;;;;;0.39;89.02;99391.38;216017;1264;141328;-68
2024/01/13 12:52:57;;;;;;;17.10;10.80;;;;;;;0.37;89.09;99389.92;216170;1264;142002;-70
2024/01/13 12:57:59;;;;;;;15.00;11.00;;;;;;;0.36;89.07;99385.84;217439;1264;140338;-71
2024/01/13 13:03:02;;;;;;;18.00;11.70;;;;;;;0.35;89.30;99370.86;215908;1265;141365;-71
2024/01/13 13:08:04;;;;;;;13.10;11.40;;;;;;;0.35;89.00;99361.79;216499;1267;140450;-71
2024/01/13 13:13:06;;;;;;;15.10;11.60;;;;;;;0.35;89.01;99350.94;216008;1265;141432;-70
2024/01/13 13:18:08;;;;;;;9.60;7.10;;;;;;;0.33;88.61;99343.19;215977;1267;140919;-72
2024/01/13 13:29:00;;;;;;;13.90;9.90;;;;;;;0.29;89.10;99334.41;207950;1269;979338;-69
2024/01/13 13:34:03;;;;;;;14.10;9.40;;;;;;;0.29;88.99;99329.52;216084;1270;141890;-70
2024/01/13 13:39:06;;;;;;;17.40;10.30;;;;;;;0.31;89.35;99317.69;215995;1270;141712;-74
2024/01/13 13:44:09;;;;;;;16.30;9.60;;;;;;;0.35;89.44;99307.97;216533;1266;139963;-71
2024/01/13 13:49:11;;;;;;;12.30;9.60;;;;;;;0.39;89.14;99288.84;215884;1267;139824;-74
2024/01/13 13:54:14;;;;;;;14.60;8.90;;;;;;;0.38;89.33;99277.77;215947;1267;139633;-70
2024/01/13 13:59:16;;;;;;;13.70;9.20;;;;;;;0.36;89.25;99275.16;215793;1270;140771;-71
2024/01/13 14:04:18;;;;;;;10.00;7.10;;;;;;;0.30;89.09;99271.50;216185;1269;140707;-72
2024/01/13 14:09:21;;;;;;;11.70;8.20;;;;;;;0.25;89.37;99267.73;215772;1267;140369;-70
2024/01/13 14:14:23;;;;;;;14.70;9.60;;;;;;;0.19;89.51;99264.40;216826;1269;140509;-70
2024/01/13 14:19:26;;;;;;;12.80;9.60;;;;;;;0.18;89.55;99260.02;216238;1269;139933;-72
2024/01/13 14:24:28;;;;;;;102.80;40.20;;;;;;;0.20;89.98;99260.53;215953;1266;140342;-74
2024/01/13 14:29:31;;;;;;;57.70;33.50;;;;;;;0.21;89.63;99253.42;216590;1267;140366;-72
2024/01/13 14:34:33;;;;;;;18.10;12.60;;;;;;;0.23;90.24;99251.92;215799;1269;141072;-71
2024/01/13 14:39:36;;;;;;;16.20;12.00;;;;;;;0.23;89.92;99253.30;216790;1267;140249;-71
2024/01/13 14:44:39;;;;;;;13.60;9.40;;;;;;;0.19;90.07;99249.23;217533;1267;141174;-71
2024/01/13 14:49:43;;;;;;;10.40;7.50;;;;;;;0.16;89.91;99243.14;216115;1269;140862;-71
2024/01/13 14:54:47;;;;;;;17.90;10.70;;;;;;;0.14;90.21;99227.88;217261;1267;140358;-70
2024/01/13 14:59:53;;;;;;;14.90;10.60;;;;;;;0.15;90.15;99221.98;218192;1266;139961;-72
2024/01/13 15:04:56;;;;;;;12.60;7.30;;;;;;;0.16;90.17;99207.14;216760;1267;142786;-72
2024/01/13 15:10:15;;;;;;;17.20;12.10;;;;;;;0.17;90.38;99198.64;215715;1267;141673;-74
2024/01/13 15:15:19;;;;;;;13.50;8.40;;;;;;;0.16;90.14;99189.81;215833;1269;140457;-73
2024/01/13 15:20:24;;;;;;;10.90;7.10;;;;;;;0.11;90.45;99190.96;216721;1267;140734;-72
2024/01/13 15:25:27;;;;;;;14.90;9.10;;;;;;;0.10;90.86;99189.51;215682;1267;141418;-69
2024/01/13 15:30:30;;;;;;;8.70;7.40;;;;;;;0.10;90.80;99180.95;215613;1267;143418;-70
2024/01/13 15:35:36;;;;;;;11.00;8.70;;;;;;;0.09;90.91;99177.72;215605;1267;140396;-70
2024/01/13 15:40:40;;;;;;;21.70;12.40;;;;;;;0.09;90.98;99166.06;215846;1268;139901;-69
2024/01/13 15:45:42;;;;;;;39.60;22.10;;;;;;;0.07;91.09;99146.37;216489;1266;139920;-71
2024/01/13 15:50:45;;;;;;;12.70;7.70;;;;;;;0.07;91.35;99144.34;215382;1266;141255;-71
2024/01/13 15:55:48;;;;;;;12.10;8.40;;;;;;;0.04;90.96;99148.14;215615;1267;140154;-70
2024/01/13 16:00:51;;;;;;;8.20;5.80;;;;;;;0.02;91.31;99145.25;215465;1267;141731;-70
2024/01/13 16:05:54;;;;;;;9.80;6.80;;;;;;;-0.01;91.14;99141.48;215428;1268;141442;-71
2024/01/13 16:10:57;;;;;;;10.10;7.10;;;;;;;-0.01;91.37;99138.98;215919;1269;141962;-71
2024/01/13 16:15:59;;;;;;;14.50;6.90;;;;;;;-0.00;91.29;99133.11;215508;1269;141249;-71
2024/01/13 16:21:03;;;;;;;8.10;5.50;;;;;;;-0.02;91.52;99127.53;215520;1267;142880;-71
2024/01/13 16:26:07;;;;;;;7.30;5.10;;;;;;;-0.04;91.44;99110.13;215648;1268;140873;-69
2024/01/13 16:31:10;;;;;;;6.60;5.10;;;;;;;-0.07;91.35;99103.11;217272;1266;139973;-71
2024/01/13 16:36:13;;;;;;;6.10;4.70;;;;;;;-0.06;91.76;99097.24;218467;1266;141070;-72
2024/01/13 16:41:16;;;;;;;10.10;4.70;;;;;;;-0.04;91.65;99086.63;217858;1267;140544;-71
2024/01/13 16:46:19;;;;;;;9.70;5.50;;;;;;;-0.06;91.75;99079.13;215409;1270;140286;-71
2024/01/13 16:51:22;;;;;;;6.80;5.20;;;;;;;-0.06;91.67;99073.86;215696;1267;139879;-73
2024/01/13 16:56:25;;;;;;;9.80;6.10;;;;;;;-0.07;91.63;99058.25;215767;1270;141900;-70
2024/01/13 17:01:31;;;;;;;6.50;5.30;;;;;;;-0.10;91.79;99041.88;215384;1268;139862;-72
2024/01/13 17:06:34;;;;;;;6.30;4.10;;;;;;;-0.14;91.93;99043.60;215434;1267;140146;-70
2024/01/13 17:11:38;;;;;;;5.50;5.00;;;;;;;-0.17;92.01;99039.09;215594;1266;140046;-67
2024/01/13 17:16:42;;;;;;;6.80;5.20;;;;;;;-0.17;92.14;99022.84;215492;1267;140183;-69
2024/01/13 17:21:46;;;;;;;10.30;5.50;;;;;;;-0.18;92.00;99015.23;215493;1267;140056;-67
2024/01/13 17:26:49;;;;;;;7.80;4.70;;;;;;;-0.21;92.23;99005.24;215524;1269;140661;-70
2024/01/13 17:31:52;;;;;;;9.70;5.30;;;;;;;-0.24;92.53;99002.92;215494;1270;141028;-70
2024/01/13 17:36:55;;;;;;;4.40;3.70;;;;;;;-0.28;92.45;98992.56;215420;1267;140625;-70
2024/01/13 17:41:59;;;;;;;8.10;6.30;;;;;;;-0.32;92.54;98979.73;215444;1267;139969;-69
2024/01/13 17:47:03;;;;;;;9.30;5.10;;;;;;;-0.33;92.70;98966.95;215463;1267;140439;-69
2024/01/13 17:52:06;;;;;;;6.50;4.70;;;;;;;-0.33;92.80;98959.33;215301;1270;141658;-70
2024/01/13 17:57:08;;;;;;;7.90;4.90;;;;;;;-0.33;93.23;98959.63;215992;1270;140421;-69
2024/01/13 18:02:13;;;;;;;6.10;5.10;;;;;;;-0.36;92.78;98959.23;215549;1268;140804;-68
2024/01/13 18:07:15;;;;;;;6.80;4.90;;;;;;;-0.39;92.77;98958.05;215309;1267;141014;-70
2024/01/13 18:12:18;;;;;;;8.90;6.10;;;;;;;-0.41;92.73;98946.02;215500;1270;140640;-69
2024/01/13 18:17:21;;;;;;;10.90;6.00;;;;;;;-0.39;93.02;98943.39;215664;1268;140574;-71
2024/01/13 18:22:24;;;;;;;7.80;4.80;;;;;;;-0.39;93.01;98938.99;217052;1267;140906;-69
2024/01/13 18:27:26;;;;;;;9.60;5.40;;;;;;;-0.40;93.35;98934.59;218788;1266;140721;-71
2024/01/13 18:32:29;;;;;;;6.40;5.00;;;;;;;-0.41;93.08;98922.46;217737;1267;139742;-75
2024/01/13 18:37:32;;;;;;;8.40;5.60;;;;;;;-0.39;92.80;98917.08;215344;1266;140960;-77
2024/01/13 18:42:35;;;;;;;11.10;6.40;;;;;;;-0.39;92.99;98914.55;215540;1267;140890;-71
2024/01/13 18:47:38;;;;;;;9.10;5.90;;;;;;;-0.38;93.16;98910.45;215409;1269;140132;-69
2024/01/13 18:52:41;;;;;;;9.30;6.50;;;;;;;-0.36;93.27;98909.48;215534;1267;141064;-68
2024/01/13 18:57:45;;;;;;;8.70;6.00;;;;;;;-0.35;93.25;98902.88;215647;1267;140346;-69
2024/01/13 19:02:48;;;;;;;11.20;7.20;;;;;;;-0.36;93.17;98893.60;215724;1267;142486;-70
2024/01/13 19:07:53;;;;;;;8.70;5.70;;;;;;;-0.39;93.13;98883.30;216090;1267;139821;-69
2024/01/13 19:12:56;;;;;;;10.40;7.10;;;;;;;-0.42;93.47;98878.13;215465;1270;141012;-70
2024/01/13 19:17:58;;;;;;;10.30;7.10;;;;;;;-0.44;93.54;98868.57;215908;1268;140173;-69
2024/01/13 19:23:03;;;;;;;9.50;6.20;;;;;;;-0.45;93.29;98855.46;215783;1267;140029;-70
2024/01/13 19:28:05;;;;;;;8.50;5.80;;;;;;;-0.47;93.44;98849.00;215912;1267;139972;-69
2024/01/13 19:33:08;;;;;;;9.90;7.40;;;;;;;-0.50;93.35;98828.42;215723;1267;141158;-68
2024/01/13 19:38:12;;;;;;;10.90;7.80;;;;;;;-0.50;93.62;98822.66;216103;1265;140493;-72
2024/01/13 19:43:15;;;;;;;10.20;7.20;;;;;;;-0.50;93.63;98816.39;216104;1268;140428;-71
2024/01/13 19:48:17;;;;;;;9.30;6.90;;;;;;;-0.50;93.57;98808.40;215807;1267;141458;-70
2024/01/13 19:53:20;;;;;;;12.60;7.90;;;;;;;-0.51;94.05;98800.27;215628;1267;140269;-72
2024/01/13 19:58:26;;;;;;;13.30;8.90;;;;;;;-0.51;93.94;98800.34;215822;1270;139988;-73
2024/01/13 20:03:29;;;;;;;9.20;6.40;;;;;;;-0.49;93.79;98796.94;215811;1267;140760;-70
2024/01/13 20:08:33;;;;;;;7.40;5.80;;;;;;;-0.48;94.71;98784.55;215863;1268;139704;-72
2024/01/13 20:13:35;;;;;;;9.80;7.70;;;;;;;-0.49;94.41;98774.10;215993;1267;140647;-73
2024/01/13 20:18:38;;;;;;;15.60;9.10;;;;;;;-0.51;94.51;98761.20;216143;1267;139877;-72
2024/01/13 20:23:41;;;;;;;21.50;12.50;;;;;;;-0.49;94.56;98756.10;216228;1266;140180;-70
2024/01/13 20:28:48;;;;;;;14.60;10.10;;;;;;;-0.49;94.53;98750.83;215733;1270;140109;-71
2024/01/13 20:33:51;;;;;;;15.60;11.20;;;;;;;-0.46;94.55;98748.20;215848;1266;140883;-71
2024/01/13 20:38:56;;;;;;;14.90;13.40;;;;;;;-0.48;94.27;98746.56;215659;1267;140422;-72
2024/01/13 20:43:59;;;;;;;16.20;11.90;;;;;;;-0.49;94.63;98750.70;215858;1269;140812;-71
2024/01/13 20:49:04;;;;;;;10.80;7.90;;;;;;;-0.46;94.61;98744.90;215766;1267;141343;-72
2024/01/13 20:54:08;;;;;;;10.20;8.40;;;;;;;-0.47;94.41;98746.21;215598;1267;142205;-70
2024/01/13 20:59:11;;;;;;;11.00;9.30;;;;;;;-0.48;94.51;98741.45;215924;1267;139748;-73
2024/01/13 21:04:16;;;;;;;13.90;8.40;;;;;;;-0.46;94.47;98736.67;215740;1267;140129;-69
2024/01/13 21:09:20;;;;;;;12.60;8.40;;;;;;;-0.47;94.84;98742.03;215758;1267;139997;-69
2024/01/13 21:14:23;;;;;;;15.30;9.00;;;;;;;-0.48;94.92;98735.34;216183;1267;139829;-70
2024/01/13 21:19:27;;;;;;;6.00;5.10;;;;;;;-0.48;94.89;98721.79;215861;1269;139940;-70
2024/01/13 21:24:30;;;;;;;10.00;7.00;;;;;;;-0.49;95.09;98713.13;216128;1267;140564;-68
2024/01/13 21:29:33;;;;;;;11.70;7.70;;;;;;;-0.48;94.83;98704.24;216384;1267;140361;-70
2024/01/13 21:34:36;;;;;;;10.60;6.80;;;;;;;-0.47;95.06;98703.13;215479;1267;139809;-71
2024/01/13 21:39:40;;;;;;;13.30;7.60;;;;;;;-0.48;94.82;98699.12;215958;1266;141064;-71
2024/01/13 21:44:43;;;;;;;15.90;8.00;;;;;;;-0.50;95.05;98696.68;215943;1267;140641;-70
2024/01/13 21:49:46;;;;;;;14.80;10.40;;;;;;;-0.48;95.39;98684.55;215943;1267;140151;-72
2024/01/13 21:54:50;;;;;;;11.40;9.00;;;;;;;-0.48;95.08;98674.27;215731;1268;141177;-69
2024/01/13 21:59:53;;;;;;;12.50;8.40;;;;;;;-0.48;95.11;98659.45;215846;1267;139987;-72
2024/01/13 22:04:59;;;;;;;11.70;8.00;;;;;;;-0.45;95.44;98662.25;215495;1267;139949;-70
2024/01/13 22:10:06;;;;;;;15.30;7.90;;;;;;;-0.43;95.66;98653.98;215611;1267;140702;-72
2024/01/13 22:15:10;;;;;;;10.70;7.20;;;;;;;-0.40;95.63;98648.33;215710;1266;140395;-71
2024/01/13 22:20:12;;;;;;;11.50;9.10;;;;;;;-0.38;95.58;98637.95;216043;1267;140338;-71
2024/01/13 22:25:15;;;;;;;9.70;6.50;;;;;;;-0.34;95.30;98627.38;216888;1265;141549;-70
2024/01/13 22:30:17;;;;;;;13.90;8.30;;;;;;;-0.31;95.64;98631.75;216220;1267;463918;-71
2024/01/13 22:35:21;;;;;;;17.80;8.70;;;;;;;-0.29;95.68;98627.14;215734;1270;141762;-70
2024/01/13 22:40:23;;;;;;;12.00;6.60;;;;;;;-0.29;95.38;98622.15;215967;1270;140605;-73
2024/01/13 22:45:27;;;;;;;12.40;9.50;;;;;;;-0.27;95.73;98610.95;215954;1267;140335;-71
2024/01/13 22:50:32;;;;;;;13.70;8.80;;;;;;;-0.27;95.96;98611.84;215661;1268;140307;-70
2024/01/13 22:55:35;;;;;;;16.10;8.30;;;;;;;-0.24;96.04;98603.89;216608;1269;140280;-69
2024/01/13 23:00:39;;;;;;;11.90;8.20;;;;;;;-0.21;95.76;98595.36;216908;1267;140376;-74
2024/01/13 23:05:43;;;;;;;12.10;8.00;;;;;;;-0.17;96.01;98589.46;215844;1268;140679;-72